Time;durP1;ratioP1;P1;durP2;ratioP2;P2;SDS_P1;SDS_P2;PMS_P1;PMS_P2;Temp;Humidity;BMP_temperature;BMP_pressure;BME280_temperature;BME280_humidity;BME280_pressure;Samples;Min_cycle;Max_cycle;Signal;HPM_P1;HPM_P2
2021/01/07 00:02:11;;;;;;;12.73;9.30;;;;;;;5.08;73.55;100724.56;1703455;82;21451;-43
2021/01/07 00:04:39;;;;;;;12.33;8.63;;;;;;;5.06;73.60;100715.81;1738003;80;21643;-43
2021/01/07 00:07:07;;;;;;;13.50;9.65;;;;;;;5.04;73.63;100704.44;1738729;80;21150;-44
2021/01/07 00:09:34;;;;;;;11.97;9.20;;;;;;;5.06;73.67;100712.30;1741504;80;21161;-38
2021/01/07 00:12:02;;;;;;;12.78;9.73;;;;;;;5.05;73.69;100716.73;1741454;80;21154;-40
2021/01/07 00:14:30;;;;;;;13.65;9.83;;;;;;;5.06;73.69;100715.81;1738419;80;21144;-41
2021/01/07 00:16:57;;;;;;;13.22;9.78;;;;;;;5.07;73.74;100709.62;1743610;80;21405;-42
2021/01/07 00:19:25;;;;;;;14.93;10.82;;;;;;;5.10;73.79;100711.30;1740664;80;21122;-39
2021/01/07 00:21:53;;;;;;;15.72;10.35;;;;;;;5.11;73.81;100711.70;1739840;80;21137;-45
2021/01/07 00:24:20;;;;;;;15.30;10.28;;;;;;;5.11;73.86;100699.80;1740141;80;21145;-40
2021/01/07 00:26:48;;;;;;;13.88;10.50;;;;;;;5.11;73.77;100689.23;1736990;80;21636;-42
2021/01/07 00:29:15;;;;;;;12.63;10.30;;;;;;;5.11;73.83;100696.70;1739231;80;21185;-41
2021/01/07 00:31:50;;;;;;;16.35;10.78;;;;;;;5.12;73.68;100698.45;1741869;80;21145;-41
2021/01/07 00:34:18;;;;;;;14.15;9.53;;;;;;;5.12;73.56;100701.55;1742011;80;21113;-44
2021/01/07 00:36:45;;;;;;;16.73;11.33;;;;;;;5.12;73.50;100703.73;1742224;80;21283;-43
2021/01/07 00:39:13;;;;;;;11.63;9.00;;;;;;;5.14;73.51;100697.95;1744804;80;21180;-41
2021/01/07 00:41:40;;;;;;;11.50;9.45;;;;;;;5.16;73.50;100689.94;1745345;80;21154;-44
2021/01/07 00:44:08;;;;;;;12.45;9.98;;;;;;;5.16;73.36;100687.30;1743177;80;21161;-43
2021/01/07 00:46:35;;;;;;;17.70;13.50;;;;;;;5.14;73.40;100690.44;1741374;80;21141;-41
2021/01/07 00:49:03;;;;;;;13.08;9.73;;;;;;;5.15;73.51;100700.12;1742145;80;21159;-40
2021/01/07 00:51:33;;;;;;;12.47;9.35;;;;;;;5.16;73.48;100705.34;1739913;80;21165;-41
2021/01/07 00:54:01;;;;;;;12.87;9.53;;;;;;;5.18;73.31;100710.59;1742166;80;21109;-39
2021/01/07 00:56:35;;;;;;;11.30;9.28;;;;;;;5.14;73.28;100704.98;1719761;80;21130;-38
2021/01/07 00:59:05;;;;;;;12.90;10.45;;;;;;;5.13;73.33;100697.98;1741408;80;21146;-42
2021/01/07 01:01:36;;;;;;;11.85;10.15;;;;;;;5.14;73.32;100693.09;1740702;80;21153;-39
2021/01/07 01:04:03;;;;;;;13.78;9.53;;;;;;;5.12;73.43;100693.16;1743543;80;21137;-38
2021/01/07 01:06:32;;;;;;;20.32;11.30;;;;;;;5.13;73.55;100690.05;1743741;80;21189;-41
2021/01/07 01:08:59;;;;;;;16.60;10.13;;;;;;;5.14;73.45;100681.19;1744499;80;21705;-43
2021/01/07 01:11:27;;;;;;;20.62;9.83;;;;;;;5.16;73.42;100674.94;1676592;83;21637;-41
2021/01/07 01:13:54;;;;;;;15.68;9.68;;;;;;;5.17;73.33;100676.68;1681555;83;21190;-42
2021/01/07 01:16:27;;;;;;;12.45;8.95;;;;;;;5.19;73.29;100676.61;1739432;80;21573;-42
2021/01/07 01:18:55;;;;;;;14.33;9.78;;;;;;;5.19;73.21;100673.97;1738943;80;21164;-39
2021/01/07 01:21:23;;;;;;;22.42;10.08;;;;;;;5.20;73.21;100675.72;1741911;80;21137;-37
2021/01/07 01:23:50;;;;;;;13.83;9.80;;;;;;;5.20;73.15;100672.61;1745837;80;21174;-40
2021/01/07 01:26:18;;;;;;;14.33;10.93;;;;;;;5.21;73.13;100673.00;1742984;80;21617;-41
2021/01/07 01:28:46;;;;;;;13.58;9.08;;;;;;;5.18;72.92;100665.64;1747789;80;21138;-42
2021/01/07 01:31:13;;;;;;;12.73;8.68;;;;;;;5.15;72.99;100661.78;1746522;81;21141;-38
2021/01/07 01:33:41;;;;;;;10.38;7.92;;;;;;;5.15;72.88;100658.67;1751052;80;21150;-37
2021/01/07 01:36:09;;;;;;;12.78;9.60;;;;;;;5.16;72.87;100660.86;1745878;81;21177;-39
2021/01/07 01:38:36;;;;;;;12.37;8.63;;;;;;;5.17;72.84;100654.67;1746939;80;21574;-37
2021/01/07 01:41:04;;;;;;;12.35;8.60;;;;;;;5.17;72.84;100643.63;1743063;80;21577;-41
2021/01/07 01:43:36;;;;;;;20.40;14.28;;;;;;;5.18;72.88;100644.48;1746092;80;21664;-38
2021/01/07 01:46:03;;;;;;;11.08;8.25;;;;;;;5.19;72.94;100636.52;1752840;81;21143;-41
2021/01/07 01:48:31;;;;;;;10.55;7.87;;;;;;;5.21;72.91;100632.02;1747867;80;21124;-39
2021/01/07 01:50:59;;;;;;;11.15;8.43;;;;;;;5.21;72.84;100628.52;1750185;80;21157;-40
2021/01/07 01:53:26;;;;;;;12.70;8.75;;;;;;;5.19;72.87;100619.77;1750378;80;21153;-41
2021/01/07 01:55:54;;;;;;;17.77;10.25;;;;;;;5.20;72.87;100617.08;1749503;80;21170;-40
2021/01/07 01:58:21;;;;;;;13.88;9.35;;;;;;;5.21;72.89;100607.36;1747975;80;21185;-41
2021/01/07 02:00:49;;;;;;;14.63;9.53;;;;;;;5.22;72.87;100605.14;1745660;80;21110;-41
2021/01/07 02:03:16;;;;;;;15.70;9.38;;;;;;;5.20;72.90;100598.58;1750907;80;21676;-42
2021/01/07 02:05:46;;;;;;;17.02;9.95;;;;;;;5.21;72.91;100588.86;1747318;81;21667;-42
2021/01/07 02:08:14;;;;;;;16.00;9.90;;;;;;;5.19;72.92;100579.67;1745393;80;21154;-45
2021/01/07 02:10:42;;;;;;;13.13;9.35;;;;;;;5.20;72.92;100589.78;1747890;80;21151;-40
2021/01/07 02:13:10;;;;;;;12.88;10.05;;;;;;;5.21;72.89;100588.86;1718705;81;21121;-42
2021/01/07 02:15:42;;;;;;;14.35;9.70;;;;;;;5.24;72.84;100584.81;1744635;81;21140;-38
2021/01/07 02:18:10;;;;;;;14.05;9.00;;;;;;;5.25;72.81;100583.88;1709334;82;21134;-40
2021/01/07 02:20:38;;;;;;;14.58;9.20;;;;;;;5.25;72.87;100578.59;1750800;81;21117;-41
2021/01/07 02:23:05;;;;;;;12.05;9.50;;;;;;;5.25;72.83;100567.16;1746678;80;21162;-39
2021/01/07 02:25:33;;;;;;;11.57;9.53;;;;;;;5.26;72.81;100563.58;1749669;80;21138;-42
2021/01/07 02:28:01;;;;;;;13.13;9.15;;;;;;;5.25;72.83;100553.94;1747685;80;21144;-43
2021/01/07 02:30:29;;;;;;;12.82;8.88;;;;;;;5.24;72.75;100558.80;1750094;80;21585;-40
2021/01/07 02:32:57;;;;;;;10.48;7.75;;;;;;;5.22;72.75;100553.58;1750226;81;21165;-39
2021/01/07 02:35:25;;;;;;;9.88;7.60;;;;;;;5.25;72.78;100554.80;1742038;81;21599;-40
2021/01/07 02:37:53;;;;;;;11.65;8.70;;;;;;;5.25;72.75;100548.64;1746773;80;21162;-42
2021/01/07 02:40:20;;;;;;;8.73;7.83;;;;;;;5.21;72.78;100541.27;1748601;81;21145;-41
2021/01/07 02:42:48;;;;;;;9.80;7.53;;;;;;;5.18;72.86;100532.13;1749593;81;21625;-41
2021/01/07 02:45:16;;;;;;;9.75;7.97;;;;;;;5.17;72.83;100531.73;1740239;80;21167;-42
2021/01/07 02:47:44;;;;;;;9.90;7.33;;;;;;;5.18;72.87;100535.63;1743365;80;21149;-40
2021/01/07 02:50:12;;;;;;;8.78;6.85;;;;;;;5.19;72.80;100536.48;1744680;80;21148;-41
2021/01/07 02:52:40;;;;;;;10.43;7.60;;;;;;;5.20;72.83;100535.58;1748290;80;21110;-38
2021/01/07 02:55:09;;;;;;;9.48;7.62;;;;;;;5.20;72.76;100532.94;1748585;80;21153;-39
2021/01/07 02:57:36;;;;;;;8.25;6.37;;;;;;;5.20;72.74;100523.22;1747805;80;21161;-42
2021/01/07 03:00:05;;;;;;;8.95;6.97;;;;;;;5.17;72.79;100523.33;1742762;80;21143;-42
2021/01/07 03:02:32;;;;;;;8.23;5.90;;;;;;;5.18;72.82;100522.88;1745382;80;21165;-42
2021/01/07 03:05:00;;;;;;;8.85;6.28;;;;;;;5.19;72.74;100512.69;1756709;80;21138;-39
2021/01/07 03:07:27;;;;;;;7.05;5.80;;;;;;;5.19;72.76;100515.33;1751935;80;21145;-41
2021/01/07 03:09:55;;;;;;;8.38;6.28;;;;;;;5.19;72.86;100515.33;1743277;80;21163;-41
2021/01/07 03:12:23;;;;;;;8.25;6.65;;;;;;;5.19;72.92;100515.33;1750537;80;21165;-41
2021/01/07 03:14:50;;;;;;;7.37;6.20;;;;;;;5.20;72.89;100511.78;1749399;80;21186;-42
2021/01/07 03:17:18;;;;;;;9.93;7.12;;;;;;;5.20;72.94;100512.64;1750839;80;21130;-39
2021/01/07 03:19:45;;;;;;;9.20;6.40;;;;;;;5.22;72.94;100504.67;1752354;80;21173;-41
2021/01/07 03:22:13;;;;;;;8.00;6.47;;;;;;;5.21;72.93;100502.92;1741864;80;22168;-42
2021/01/07 03:24:41;;;;;;;7.42;6.20;;;;;;;5.20;72.94;100495.45;1741862;80;21635;-41
2021/01/07 03:27:08;;;;;;;7.37;6.10;;;;;;;5.22;72.94;100491.45;1739872;80;21632;-42
2021/01/07 03:29:36;;;;;;;8.45;6.83;;;;;;;5.23;72.93;100483.05;1743110;80;21186;-42
2021/01/07 03:32:04;;;;;;;9.70;7.30;;;;;;;5.23;72.94;100472.47;1744468;80;21145;-42
2021/01/07 03:34:32;;;;;;;9.13;6.90;;;;;;;5.22;72.92;100467.65;1740867;80;21149;-43
2021/01/07 03:36:59;;;;;;;8.75;6.87;;;;;;;5.22;72.99;100467.65;1704463;82;21163;-39
2021/01/07 03:39:27;;;;;;;8.63;6.50;;;;;;;5.21;73.01;100468.55;1685826;83;21195;-43
2021/01/07 03:41:54;;;;;;;7.85;5.67;;;;;;;5.20;73.05;100465.05;1680397;83;21152;-38
2021/01/07 03:44:22;;;;;;;8.90;6.62;;;;;;;5.18;73.04;100459.41;1740154;80;21150;-40
2021/01/07 03:46:49;;;;;;;8.63;6.20;;;;;;;5.17;73.12;100459.88;1744531;80;21169;-42
2021/01/07 03:49:17;;;;;;;7.90;6.72;;;;;;;5.17;73.09;100455.06;1739806;80;21162;-42
2021/01/07 03:51:44;;;;;;;8.48;6.35;;;;;;;5.15;73.17;100448.96;1741252;80;21158;-43
2021/01/07 03:54:12;;;;;;;10.58;6.42;;;;;;;5.13;73.28;100447.69;1740107;81;21547;-42
2021/01/07 03:56:39;;;;;;;8.73;6.25;;;;;;;5.13;73.31;100446.36;1746080;81;21632;-40
2021/01/07 03:59:07;;;;;;;9.20;6.83;;;;;;;5.14;73.32;100446.78;1741957;80;21898;-43
2021/01/07 04:01:34;;;;;;;8.30;6.05;;;;;;;5.14;73.29;100441.93;1736405;81;21138;-43
2021/01/07 04:04:02;;;;;;;8.78;5.92;;;;;;;5.15;73.35;100441.88;1737463;81;21144;-41
2021/01/07 04:06:29;;;;;;;8.63;6.25;;;;;;;5.13;73.41;100441.07;1741830;81;21676;-42
2021/01/07 04:08:57;;;;;;;8.00;6.00;;;;;;;5.11;73.45;100440.27;1742590;80;21598;-41
2021/01/07 04:11:24;;;;;;;7.90;6.03;;;;;;;5.10;73.49;100439.02;1743857;80;21142;-39
2021/01/07 04:13:52;;;;;;;8.48;6.58;;;;;;;5.09;73.58;100434.19;1742181;80;21150;-39
2021/01/07 04:16:19;;;;;;;7.03;5.58;;;;;;;5.12;73.62;100436.72;1748180;81;21147;-42
2021/01/07 04:18:47;;;;;;;11.18;6.15;;;;;;;5.13;73.65;100432.28;1739856;80;21155;-43
2021/01/07 04:21:18;;;;;;;8.80;6.33;;;;;;;5.14;73.63;100430.92;1745348;80;21578;-38
2021/01/07 04:23:46;;;;;;;8.48;6.37;;;;;;;5.15;73.63;100429.13;1737157;80;21142;-38
2021/01/07 04:26:15;;;;;;;7.40;5.78;;;;;;;5.13;73.69;100428.32;1733772;80;21971;-42
2021/01/07 04:28:43;;;;;;;7.25;5.58;;;;;;;5.13;73.70;100433.61;1731583;80;21163;-44
2021/01/07 04:31:10;;;;;;;7.08;5.42;;;;;;;5.13;73.72;100423.89;1735308;80;21545;-40
2021/01/07 04:33:38;;;;;;;7.53;5.60;;;;;;;5.14;73.74;100422.09;1733825;80;21727;-42
2021/01/07 04:36:06;;;;;;;7.40;4.78;;;;;;;5.12;73.82;100417.36;1730175;80;21150;-40
2021/01/07 04:38:34;;;;;;;6.58;4.65;;;;;;;5.12;73.87;100420.00;1731736;80;21118;-41
2021/01/07 04:41:01;;;;;;;7.40;4.87;;;;;;;5.13;73.88;100421.71;1734454;80;21158;-41
2021/01/07 04:43:29;;;;;;;7.05;5.28;;;;;;;5.14;73.88;100424.74;1736928;80;21120;-41
2021/01/07 04:45:57;;;;;;;7.28;5.30;;;;;;;5.13;73.92;100415.95;1741858;80;21198;-43
2021/01/07 04:48:24;;;;;;;6.95;5.10;;;;;;;5.14;73.94;100419.45;1736134;80;21153;-42
2021/01/07 04:50:52;;;;;;;5.55;4.20;;;;;;;5.13;73.96;100421.24;1739661;80;21150;-42
2021/01/07 04:53:20;;;;;;;6.70;5.10;;;;;;;5.14;73.96;100424.31;1745112;80;21145;-42
2021/01/07 04:55:48;;;;;;;7.08;4.47;;;;;;;5.13;73.96;100419.92;1715943;81;21658;-43
2021/01/07 04:58:15;;;;;;;7.20;4.95;;;;;;;5.13;74.03;100419.92;1736052;80;21669;-42
2021/01/07 05:00:43;;;;;;;7.33;5.60;;;;;;;5.15;74.08;100414.13;1734126;80;21558;-41
2021/01/07 05:03:20;;;;;;;7.08;4.78;;;;;;;5.14;74.05;100406.23;1737121;80;21169;-42
2021/01/07 05:05:49;;;;;;;6.80;5.35;;;;;;;5.13;74.15;100401.88;1738866;80;21464;-42
2021/01/07 05:08:19;;;;;;;7.03;4.80;;;;;;;5.16;74.16;100398.66;1739550;80;21197;-52
2021/01/07 05:10:47;;;;;;;6.03;4.62;;;;;;;5.18;74.16;100405.22;1735350;80;21141;-43
2021/01/07 05:13:15;;;;;;;8.78;4.92;;;;;;;5.18;74.17;100399.93;1740225;80;21153;-42
2021/01/07 05:15:42;;;;;;;6.33;5.03;;;;;;;5.18;74.18;100392.85;1713067;80;21161;-42
2021/01/07 05:18:10;;;;;;;8.23;6.20;;;;;;;5.19;74.22;100393.70;1740248;80;21157;-42
2021/01/07 05:20:37;;;;;;;7.33;4.92;;;;;;;5.19;74.21;100392.39;1737220;80;21144;-38
2021/01/07 05:23:06;;;;;;;7.50;5.22;;;;;;;5.18;74.20;100389.36;1737408;80;21148;-40
2021/01/07 05:25:34;;;;;;;7.30;5.12;;;;;;;5.17;74.27;100380.56;1740579;80;21700;-41
2021/01/07 05:28:02;;;;;;;6.47;5.03;;;;;;;5.17;74.28;100374.42;1737441;80;21157;-41
2021/01/07 05:30:31;;;;;;;8.43;5.85;;;;;;;5.18;74.32;100374.81;1722436;81;21111;-43
2021/01/07 05:33:09;;;;;;;9.45;5.87;;;;;;;5.19;74.29;100376.52;1737338;80;21181;-41
2021/01/07 05:35:37;;;;;;;8.33;5.95;;;;;;;5.19;74.33;100376.52;1738901;80;21122;-40
2021/01/07 05:38:06;;;;;;;6.75;5.25;;;;;;;5.21;74.28;100372.91;1737856;80;21173;-43
2021/01/07 05:40:35;;;;;;;7.20;5.72;;;;;;;5.24;74.28;100366.66;1740388;80;21143;-44
2021/01/07 05:43:10;;;;;;;6.97;5.45;;;;;;;5.25;74.29;100355.63;1735686;80;21477;-43
2021/01/07 05:45:39;;;;;;;7.97;5.85;;;;;;;5.25;74.26;100355.16;1733382;80;21175;-40
2021/01/07 05:48:08;;;;;;;8.50;6.85;;;;;;;5.24;74.29;100357.84;1730412;80;21177;-43
2021/01/07 05:50:38;;;;;;;8.20;6.00;;;;;;;5.24;74.36;100353.45;1720719;81;21161;-44
2021/01/07 05:53:05;;;;;;;10.72;6.35;;;;;;;5.24;74.38;100361.38;1736507;80;21169;-45
2021/01/07 05:55:33;;;;;;;8.43;6.65;;;;;;;5.26;74.35;100348.08;1729693;80;21161;-40
2021/01/07 05:58:02;;;;;;;8.10;5.97;;;;;;;5.29;74.34;100354.56;1739595;80;21339;-42
2021/01/07 06:00:32;;;;;;;7.75;5.75;;;;;;;5.29;74.33;100352.81;1731968;80;21763;-42
2021/01/07 06:03:01;;;;;;;9.65;7.12;;;;;;;5.28;74.33;100348.42;1730735;80;21150;-42
2021/01/07 06:05:29;;;;;;;8.70;6.90;;;;;;;5.29;74.36;100351.92;1735203;80;21470;-41
2021/01/07 06:07:58;;;;;;;9.98;7.70;;;;;;;5.30;74.39;100354.52;1731523;80;21661;-42
2021/01/07 06:10:25;;;;;;;11.22;6.87;;;;;;;5.32;74.40;100355.33;1734357;80;21181;-39
2021/01/07 06:12:53;;;;;;;10.55;6.92;;;;;;;5.34;74.36;100353.48;1734367;80;21324;-39
2021/01/07 06:15:22;;;;;;;11.53;7.42;;;;;;;5.34;74.32;100361.42;1733094;80;21154;-41
2021/01/07 06:17:50;;;;;;;12.95;7.97;;;;;;;5.35;74.31;100359.63;1734872;80;21135;-41
2021/01/07 06:20:21;;;;;;;13.32;8.68;;;;;;;5.34;74.30;100366.71;1709931;80;21133;-40
2021/01/07 06:22:53;;;;;;;15.38;9.35;;;;;;;5.33;74.37;100354.39;1731922;80;21663;-39
2021/01/07 06:25:22;;;;;;;;;;;;;;;5.34;74.42;100356.57;1737004;80;21157;-42
2021/01/07 06:27:53;;;;;;;17.48;9.80;;;;;;;5.36;74.44;100353.41;1733974;80;20154;-40
2021/01/07 06:30:29;;;;;;;13.83;9.25;;;;;;;5.37;74.37;100345.90;1735461;80;21149;-41
2021/01/07 06:33:03;;;;;;;18.73;11.63;;;;;;;5.35;74.45;100353.88;1735137;80;21149;-47
2021/01/07 06:35:41;;;;;;;23.95;13.70;;;;;;;5.39;74.46;100348.00;1734790;80;21162;-41
2021/01/07 06:38:16;;;;;;;26.15;14.20;;;;;;;5.39;74.51;100358.14;1733631;80;21130;-40
2021/01/07 06:40:44;;;;;;;30.77;17.35;;;;;;;5.39;74.55;100351.96;1733191;80;21632;-41
2021/01/07 06:43:15;;;;;;;32.30;17.05;;;;;;;5.39;74.59;100353.28;1718237;81;21157;-45
2021/01/07 06:45:52;;;;;;;33.10;15.35;;;;;;;5.38;74.61;100352.43;1737344;80;21142;-40
2021/01/07 06:48:30;;;;;;;36.88;16.52;;;;;;;5.39;74.69;100344.03;1741814;80;21742;-41
2021/01/07 06:50:59;;;;;;;36.45;16.82;;;;;;;5.39;74.73;100347.56;1738808;80;21158;-42
2021/01/07 06:53:39;;;;;;;31.93;17.40;;;;;;;5.41;74.72;100345.69;1736601;81;21158;-41
2021/01/07 06:56:43;;;;;;;29.05;16.00;;;;;;;5.41;74.72;100342.19;1742751;80;22169;-44
2021/01/07 06:59:27;;;;;;;31.75;15.23;;;;;;;5.40;74.79;100342.66;1681803;83;21168;-46
2021/01/07 07:01:57;;;;;;;26.87;15.30;;;;;;;5.40;74.87;100343.13;1684200;83;21316;-43
2021/01/07 07:04:29;;;;;;;29.42;16.40;;;;;;;5.41;74.89;100340.87;1684442;83;21940;-45
2021/01/07 07:07:19;;;;;;;29.72;15.30;;;;;;;5.43;74.87;100335.92;1683657;83;21150;-43
2021/01/07 07:10:20;;;;;;;26.17;14.85;;;;;;;5.47;74.95;100328.74;1753726;79;22671;-41
2021/01/07 07:12:49;;;;;;;23.07;13.40;;;;;;;5.44;74.94;100331.48;1734820;80;21166;-41
2021/01/07 07:15:17;;;;;;;25.35;13.43;;;;;;;5.45;74.98;100329.26;1742602;80;21126;-40
2021/01/07 07:17:48;;;;;;;20.77;13.10;;;;;;;5.47;75.01;100331.39;1740112;80;21170;-44
2021/01/07 07:20:20;;;;;;;22.73;11.73;;;;;;;5.49;75.01;100322.05;1737450;80;21140;-40
2021/01/07 07:22:49;;;;;;;23.52;12.60;;;;;;;5.48;74.96;100320.34;1733228;80;22008;-44
2021/01/07 07:25:25;;;;;;;17.90;11.45;;;;;;;5.50;75.12;100319.82;1731978;80;21165;-40
2021/01/07 07:27:56;;;;;;;18.30;11.25;;;;;;;5.52;75.09;100314.87;1733725;80;21161;-41
2021/01/07 07:30:32;;;;;;;16.30;10.48;;;;;;;5.53;75.08;100310.44;1733998;80;21130;-40
2021/01/07 07:33:00;;;;;;;18.37;11.83;;;;;;;5.54;75.09;100301.09;1741159;80;21174;-43
2021/01/07 07:35:34;;;;;;;15.50;10.53;;;;;;;5.55;74.99;100300.66;1738867;80;21542;-42
2021/01/07 07:38:02;;;;;;;15.23;9.38;;;;;;;5.54;75.02;100300.24;1699051;80;21611;-39
2021/01/07 07:40:39;;;;;;;17.85;9.95;;;;;;;5.54;75.03;100290.98;1739915;80;21160;-42
2021/01/07 07:43:09;;;;;;;13.05;8.45;;;;;;;5.53;75.01;100285.30;1736017;80;21103;-42
2021/01/07 07:45:40;;;;;;;15.55;9.25;;;;;;;5.52;75.02;100277.84;1737628;80;21145;-41
2021/01/07 07:48:08;;;;;;;12.28;8.08;;;;;;;5.52;75.03;100273.88;1713645;80;21597;-41
2021/01/07 07:50:36;;;;;;;12.53;8.18;;;;;;;5.51;75.07;100268.16;1720920;82;21153;-43
2021/01/07 07:53:10;;;;;;;13.10;8.63;;;;;;;5.48;75.14;100270.94;1717260;82;21174;-41
2021/01/07 07:55:42;;;;;;;14.07;8.85;;;;;;;5.47;75.21;100264.37;1719523;82;21650;-40
2021/01/07 07:58:15;;;;;;;14.13;9.20;;;;;;;5.49;75.23;100262.06;1714205;82;21141;-40
2021/01/07 08:00:52;;;;;;;13.60;8.78;;;;;;;5.50;75.28;100257.66;1715460;82;21838;-41
2021/01/07 08:03:30;;;;;;;13.48;9.48;;;;;;;5.52;75.33;100260.64;1713876;82;21603;-40
2021/01/07 08:05:59;;;;;;;16.40;10.13;;;;;;;5.54;75.32;100253.95;1715749;82;21153;-39
2021/01/07 08:08:31;;;;;;;15.28;9.78;;;;;;;5.55;75.39;100246.43;1713068;82;21124;-38
2021/01/07 08:11:00;;;;;;;12.23;8.30;;;;;;;5.55;75.42;100246.43;1678820;83;21156;-39
2021/01/07 08:13:29;;;;;;;13.85;10.03;;;;;;;5.56;75.46;100250.78;1700283;83;21160;-39
2021/01/07 08:16:01;;;;;;;15.60;9.68;;;;;;;5.54;75.60;100239.40;1680835;83;21184;-42
2021/01/07 08:18:30;;;;;;;14.75;9.80;;;;;;;5.53;75.58;100240.34;1701634;83;21150;-39
2021/01/07 08:21:08;;;;;;;15.43;9.63;;;;;;;5.53;75.71;100235.91;1692863;83;21121;-41
2021/01/07 08:23:35;;;;;;;15.23;9.40;;;;;;;5.56;75.74;100238.88;1687528;83;21156;-43
2021/01/07 08:26:03;;;;;;;15.75;9.75;;;;;;;5.57;75.75;100226.92;1689018;83;21136;-43
2021/01/07 08:28:45;;;;;;;12.13;7.03;;;;;;;5.60;75.81;100225.94;1675312;84;21518;-39
2021/01/07 08:31:20;;;;;;;11.05;8.25;;;;;;;5.60;75.79;100221.97;1655321;84;21200;-44
2021/01/07 08:33:49;;;;;;;14.10;9.15;;;;;;;5.60;75.84;100218.85;1693410;83;21668;-42
2021/01/07 08:36:19;;;;;;;12.88;9.25;;;;;;;5.59;75.89;100218.91;1695119;83;22062;-41
2021/01/07 08:38:51;;;;;;;14.10;8.70;;;;;;;5.60;75.88;100218.00;1676838;84;21161;-43
2021/01/07 08:41:24;;;;;;;13.75;8.13;;;;;;;5.61;75.99;100207.80;1691818;83;21144;-41
2021/01/07 08:43:54;;;;;;;13.35;7.65;;;;;;;5.60;76.09;100200.80;1675600;84;21482;-42
2021/01/07 08:46:28;;;;;;;13.28;8.98;;;;;;;5.62;76.26;100201.61;1690534;83;21145;-42
2021/01/07 08:49:12;;;;;;;12.25;8.50;;;;;;;5.60;76.24;100197.69;1651157;84;21196;-39
2021/01/07 08:51:44;;;;;;;12.73;8.25;;;;;;;5.60;76.32;100195.52;1678076;83;21160;-42
2021/01/07 08:54:18;;;;;;;10.85;8.40;;;;;;;5.60;76.43;100182.28;1690625;83;21194;-40
2021/01/07 08:56:50;;;;;;;12.03;8.08;;;;;;;5.61;76.49;100176.91;1693516;83;21575;-43
2021/01/07 08:59:25;;;;;;;12.95;9.25;;;;;;;5.61;76.62;100172.94;1691820;83;21177;-39
2021/01/07 09:02:06;;;;;;;10.72;8.08;;;;;;;5.61;76.78;100168.12;1698580;83;21181;-39
2021/01/07 09:04:41;;;;;;;11.97;7.85;;;;;;;5.61;76.69;100162.36;1692267;83;21137;-42
2021/01/07 09:07:17;;;;;;;11.53;6.90;;;;;;;5.64;76.76;100163.58;1693289;83;21160;-41
2021/01/07 09:09:53;;;;;;;11.83;7.65;;;;;;;5.67;76.70;100156.41;1704163;82;21161;-42
2021/01/07 09:12:33;;;;;;;11.18;7.37;;;;;;;5.69;76.69;100149.27;1712642;82;21135;-40
2021/01/07 09:15:06;;;;;;;10.18;6.20;;;;;;;5.70;76.72;100144.39;1712230;82;21914;-41
2021/01/07 09:17:45;;;;;;;9.88;6.95;;;;;;;5.71;76.69;100140.34;1713802;82;21149;-41
2021/01/07 09:20:20;;;;;;;10.93;7.80;;;;;;;5.71;76.67;100142.98;1712255;82;21149;-42
2021/01/07 09:22:48;;;;;;;10.80;7.75;;;;;;;5.72;76.60;100126.20;1712614;82;21122;-44
2021/01/07 09:25:17;;;;;;;10.68;7.30;;;;;;;5.74;76.66;100121.67;1651629;85;21315;-44
2021/01/07 09:27:46;;;;;;;11.45;7.25;;;;;;;5.74;76.63;100111.09;1710908;82;21550;-43
2021/01/07 09:30:15;;;;;;;9.28;6.70;;;;;;;5.74;76.64;100108.45;1712799;82;21915;-40
2021/01/07 09:32:43;;;;;;;9.58;5.97;;;;;;;5.76;76.66;100093.83;1714337;82;21644;-39
2021/01/07 09:35:12;;;;;;;10.90;6.58;;;;;;;5.76;76.61;100091.19;1713626;82;21137;-40
2021/01/07 09:37:41;;;;;;;9.58;6.10;;;;;;;5.76;76.58;100093.36;1706028;82;21165;-39
2021/01/07 09:40:10;;;;;;;11.60;6.17;;;;;;;5.79;76.62;100090.57;1710716;82;21148;-43
2021/01/07 09:42:39;;;;;;;10.45;6.95;;;;;;;5.78;76.60;100092.84;1711597;82;21141;-42
2021/01/07 09:45:10;;;;;;;7.78;5.30;;;;;;;5.82;76.57;100088.25;1713264;82;21181;-39
2021/01/07 09:47:37;;;;;;;9.05;6.08;;;;;;;5.83;76.57;100072.31;1718838;82;21210;-41
2021/01/07 09:50:10;;;;;;;7.78;5.58;;;;;;;5.86;76.51;100068.67;1716519;82;21189;-40
2021/01/07 09:52:38;;;;;;;9.48;5.55;;;;;;;5.88;76.46;100062.00;1716807;82;21660;-40
2021/01/07 09:55:07;;;;;;;10.50;5.83;;;;;;;5.89;76.47;100051.80;1711489;82;21150;-39
2021/01/07 09:57:36;;;;;;;8.65;5.72;;;;;;;5.89;76.43;100044.70;1708328;82;21450;-41
2021/01/07 10:00:05;;;;;;;7.75;5.25;;;;;;;5.90;76.44;100042.48;1712168;82;21165;-41
2021/01/07 10:02:33;;;;;;;8.90;6.05;;;;;;;5.92;76.46;100039.30;1715861;82;21153;-41
2021/01/07 10:05:02;;;;;;;7.62;6.05;;;;;;;5.93;76.46;100023.80;1708489;82;21153;-39
2021/01/07 10:07:30;;;;;;;7.33;5.25;;;;;;;5.94;76.56;100022.03;1710837;82;21149;-42
2021/01/07 10:09:58;;;;;;;7.83;5.42;;;;;;;5.96;76.57;100016.22;1705245;82;21147;-41
2021/01/07 10:12:26;;;;;;;7.97;5.25;;;;;;;5.97;76.55;100010.86;1701669;82;21742;-40
2021/01/07 10:14:54;;;;;;;8.05;4.90;;;;;;;5.98;76.60;100007.27;1701513;82;21154;-46
2021/01/07 10:17:22;;;;;;;7.35;6.12;;;;;;;6.00;76.63;100002.77;1702904;82;21153;-41
2021/01/07 10:19:49;;;;;;;10.10;5.30;;;;;;;6.02;76.66;99997.38;1699729;82;21122;-41
2021/01/07 10:22:18;;;;;;;7.20;5.08;;;;;;;6.03;76.72;99989.85;1699829;82;21157;-41
2021/01/07 10:24:46;;;;;;;8.73;5.75;;;;;;;6.03;76.81;99986.73;1682932;83;21178;-42
2021/01/07 10:27:16;;;;;;;7.17;4.85;;;;;;;6.06;76.86;99976.47;1698570;82;21158;-42
2021/01/07 10:29:45;;;;;;;7.00;5.28;;;;;;;6.08;76.82;99972.43;1694773;82;21118;-42
2021/01/07 10:32:14;;;;;;;6.85;5.25;;;;;;;6.08;76.95;99965.34;1700925;82;21150;-39
2021/01/07 10:34:45;;;;;;;8.10;5.25;;;;;;;6.11;76.94;99967.84;1698679;82;21149;-42
2021/01/07 10:37:13;;;;;;;7.92;4.55;;;;;;;6.12;76.90;99952.33;1700065;82;21150;-39
2021/01/07 10:39:42;;;;;;;6.75;4.30;;;;;;;6.14;76.85;99954.44;1698316;82;21138;-40
2021/01/07 10:42:12;;;;;;;6.22;4.30;;;;;;;6.16;76.88;99949.09;1702973;82;21157;-41
2021/01/07 10:44:42;;;;;;;7.25;4.67;;;;;;;6.17;76.88;99941.52;1698555;82;21133;-41
2021/01/07 10:47:11;;;;;;;5.90;4.50;;;;;;;6.17;76.92;99934.43;1699322;82;21203;-40
2021/01/07 10:49:42;;;;;;;6.08;4.22;;;;;;;6.20;77.00;99938.72;1699417;82;21158;-41
2021/01/07 10:52:43;;;;;;;5.60;4.00;;;;;;;6.21;76.98;99934.68;1706364;82;21398;-39
2021/01/07 10:55:30;;;;;;;6.40;4.62;;;;;;;6.23;76.98;99922.23;1703614;82;21111;-38
2021/01/07 10:58:25;;;;;;;6.33;4.17;;;;;;;6.26;76.95;99917.25;1701069;82;21168;-38
2021/01/07 11:01:29;;;;;;;6.60;4.08;;;;;;;6.25;76.95;99905.80;1665418;84;21645;-42
2021/01/07 11:04:16;;;;;;;5.80;4.00;;;;;;;6.27;76.95;99901.73;1623420;86;21336;-40
2021/01/07 11:06:55;;;;;;;6.12;4.42;;;;;;;6.32;77.04;99891.77;1797112;78;22997;-39
2021/01/07 11:09:24;;;;;;;6.25;4.33;;;;;;;6.30;77.07;99888.38;1770921;79;21281;-40
2021/01/07 11:11:59;;;;;;;6.05;4.17;;;;;;;6.29;77.12;99891.45;1774663;78;21107;-42
2021/01/07 11:15:03;;;;;;;5.45;4.20;;;;;;;6.31;77.16;99885.25;1775308;79;21143;-41
2021/01/07 11:17:35;;;;;;;8.38;5.47;;;;;;;6.31;77.18;99874.66;1779085;79;21145;-40
2021/01/07 11:20:06;;;;;;;8.73;6.60;;;;;;;6.29;77.27;99870.27;1749646;79;21165;-41
2021/01/07 11:22:35;;;;;;;8.38;6.65;;;;;;;6.31;77.39;99862.73;1746068;79;21467;-41
2021/01/07 11:25:07;;;;;;;8.18;5.62;;;;;;;6.32;77.46;99852.05;1772508;78;21179;-41
2021/01/07 11:27:40;;;;;;;5.28;4.15;;;;;;;6.34;77.46;99847.54;1776893;79;21113;-41
2021/01/07 11:30:06;;;;;;;8.10;5.60;;;;;;;6.36;77.47;99840.84;1775138;79;21645;-38
2021/01/07 11:32:37;;;;;;;6.85;4.47;;;;;;;6.37;77.51;99835.93;1768563;79;21116;-39
2021/01/07 11:35:08;;;;;;;5.78;4.00;;;;;;;6.39;77.61;99828.77;1775889;79;22195;-41
2021/01/07 11:38:06;;;;;;;7.17;4.72;;;;;;;6.42;77.59;99824.63;1778774;79;21287;-41
2021/01/07 11:40:56;;;;;;;7.20;4.95;;;;;;;6.46;77.54;99821.75;1746168;79;21592;-44
2021/01/07 11:43:41;;;;;;;7.25;4.33;;;;;;;6.48;77.45;99816.39;1742866;81;21510;-40
2021/01/07 11:46:14;;;;;;;7.50;4.85;;;;;;;6.48;77.46;99805.31;1742435;81;21145;-41